Time;durP1;ratioP1;P1;durP2;ratioP2;P2;SDS_P1;SDS_P2;PMS_P1;PMS_P2;Temp;Humidity;BMP_temperature;BMP_pressure;BME280_temperature;BME280_humidity;BME280_pressure;Samples;Min_cycle;Max_cycle;Signal;HPM_P1;HPM_P2
2022/02/20 00:00:23;;;;;;;;;;;231.30;2048.00;;;;;;5041988;28;20040;-79
2022/02/20 00:02:49;;;;;;;2.55;1.05;;;231.30;2048.00;;;;;;5040729;28;19921;-83
2022/02/20 00:05:14;;;;;;;;;;;231.20;2048.00;;;;;;5042651;28;20460;-81
2022/02/20 00:07:40;;;;;;;4.35;1.05;;;231.30;2048.00;;;;;;5041634;28;20302;-80
2022/02/20 00:10:06;;;;;;;;;;;231.30;2048.00;;;;;;5042936;28;20021;-80
2022/02/20 00:12:32;;;;;;;6.00;1.50;;;231.30;2048.00;;;;;;5041966;28;19912;-81
2022/02/20 00:14:57;;;;;;;;;;;231.30;2022.40;;;;;;5041093;28;20028;-81
2022/02/20 00:17:23;;;;;;;2.95;0.88;;;256.10;1996.80;;;;;;5042849;28;19993;-80
2022/02/20 00:19:50;;;;;;;;;;;256.00;1996.80;;;;;;5042766;28;20041;-82
2022/02/20 00:22:16;;;;;;;3.65;0.88;;;256.10;2022.40;;;;;;5043073;28;20362;-82
2022/02/20 00:24:42;;;;;;;2.25;0.80;;;256.10;2048.00;;;;;;5042627;28;20025;-81
2022/02/20 00:27:08;;;;;;;3.75;1.00;;;256.20;2022.40;;;;;;5041444;28;20029;-83
2022/02/20 00:29:34;;;;;;;2.90;1.02;;;256.20;2022.40;;;;;;5041316;28;20021;-81
2022/02/20 00:32:00;;;;;;;8.10;1.30;;;256.20;2022.40;;;;;;5042595;28;20029;-82
2022/02/20 00:34:26;;;;;;;4.97;1.00;;;256.20;2022.40;;;;;;5038177;28;20391;-81
2022/02/20 00:36:51;;;;;;;;;;;256.00;2099.20;;;;;;5041806;28;20037;-81
2022/02/20 00:39:17;;;;;;;2.65;1.23;;;256.00;2048.00;;;;;;5041644;28;19913;-83
2022/02/20 00:41:43;;;;;;;;;;;256.00;2048.00;;;;;;5040341;28;20455;-80
2022/02/20 00:44:08;;;;;;;3.08;1.20;;;256.00;2099.20;;;;;;5040727;28;19909;-81
2022/02/20 00:46:34;;;;;;;;;;;256.00;2099.20;;;;;;5041500;28;20498;-81
2022/02/20 00:49:00;;;;;;;2.10;0.80;;;231.30;2099.20;;;;;;5042433;28;19905;-81
2022/02/20 00:51:25;;;;;;;;;;;231.20;2073.60;;;;;;5040588;28;20036;-83
2022/02/20 00:53:51;;;;;;;3.05;1.02;;;231.20;2048.00;;;;;;5041474;28;19911;-82
2022/02/20 00:56:17;;;;;;;;;;;231.30;2073.60;;;;;;5041762;28;20026;-81
2022/02/20 00:58:43;;;;;;;3.40;1.48;;;256.00;2048.00;;;;;;5040044;28;19912;-80
2022/02/20 01:01:08;;;;;;;;;;;256.00;2073.60;;;;;;5042281;28;20036;-80
2022/02/20 01:03:34;;;;;;;6.43;1.15;;;256.00;2073.60;;;;;;5041111;28;19954;-81
2022/02/20 01:06:00;;;;;;;;;;;256.00;2048.00;;;;;;5040701;28;20414;-81
2022/02/20 01:08:25;;;;;;;2.63;1.00;;;231.30;2022.40;;;;;;5036143;28;19904;-81
2022/02/20 01:10:51;;;;;;;;;;;231.30;2022.40;;;;;;5042701;28;20055;-80
2022/02/20 01:13:17;;;;;;;3.55;0.90;;;256.00;2022.40;;;;;;5042237;28;19912;-81
2022/02/20 01:15:42;;;;;;;;;;;256.00;2048.00;;;;;;5046625;28;20451;-83
2022/02/20 01:18:08;;;;;;;4.05;1.67;;;256.00;2022.40;;;;;;5041876;28;19917;-83
2022/02/20 01:20:34;;;;;;;;;;;231.30;2022.40;;;;;;5046430;28;20025;-81
2022/02/20 01:23:00;;;;;;;4.50;1.00;;;231.20;2048.00;;;;;;5043906;28;20350;-80
2022/02/20 01:25:25;;;;;;;;;;;231.00;2048.00;;;;;;5046161;28;20060;-81
2022/02/20 01:27:51;;;;;;;3.83;1.20;;;231.00;2073.60;;;;;;5044375;28;19905;-81
2022/02/20 01:30:16;;;;;;;;;;;231.00;2073.60;;;;;;5046993;28;20029;-81
2022/02/20 01:32:42;;;;;;;1.95;0.80;;;231.00;2073.60;;;;;;5043983;28;19911;-80
2022/02/20 01:35:09;;;;;;;;;;;231.10;2099.20;;;;;;5046999;28;20036;-80
2022/02/20 01:37:35;;;;;;;3.30;0.90;;;231.00;2124.80;;;;;;5046523;28;19905;-80
2022/02/20 01:40:01;;;;;;;;;;;230.90;2176.00;;;;;;5046271;28;20044;-80
2022/02/20 01:42:27;;;;;;;6.95;1.65;;;230.90;2227.20;;;;;;5043171;28;20267;-80
2022/02/20 01:44:52;;;;;;;;;;;230.80;2252.80;;;;;;5044439;28;20369;-80
2022/02/20 01:47:18;;;;;;;6.45;1.30;;;230.70;2252.80;;;;;;5044697;28;19912;-80
2022/02/20 01:49:44;;;;;;;;;;;230.50;2252.80;;;;;;5043742;28;20087;-80
2022/02/20 01:52:09;;;;;;;3.22;1.20;;;230.40;2252.80;;;;;;5045080;28;20263;-80
2022/02/20 01:54:35;;;;;;;;;;;230.40;2252.80;;;;;;5045094;28;20108;-80
2022/02/20 01:57:03;;;;;;;2.45;1.10;;;230.40;2252.80;;;;;;5043433;28;19951;-80
2022/02/20 01:59:28;;;;;;;5.18;1.92;;;205.70;2252.80;;;;;;5042625;28;20033;-80
2022/02/20 02:01:54;;;;;;;;;;;205.70;2252.80;;;;;;5043747;28;20132;-81
2022/02/20 02:04:21;;;;;;;3.00;1.17;;;230.40;2252.80;;;;;;5043737;28;19905;-81
2022/02/20 02:06:47;;;;;;;4.45;1.85;;;230.40;2252.80;;;;;;5045549;28;20029;-81
2022/02/20 02:09:14;;;;;;;3.10;1.20;;;230.40;2252.80;;;;;;5045828;28;20033;-81
2022/02/20 02:11:41;;;;;;;5.13;1.55;;;230.40;2252.80;;;;;;5042793;28;20017;-81
2022/02/20 02:14:08;;;;;;;6.55;1.42;;;230.50;2252.80;;;;;;5045965;28;20025;-81
2022/02/20 02:16:33;;;;;;;3.00;1.10;;;230.60;2252.80;;;;;;5046223;28;20031;-83
2022/02/20 02:19:00;;;;;;;;;;;230.70;2252.80;;;;;;5044984;28;20049;-81
2022/02/20 02:21:26;;;;;;;3.67;0.90;;;230.70;2252.80;;;;;;5046040;28;20282;-80
2022/02/20 02:23:52;;;;;;;;;;;230.70;2252.80;;;;;;5043050;28;20025;-81
2022/02/20 02:26:18;;;;;;;2.92;1.25;;;230.70;2252.80;;;;;;5043648;28;19905;-81
2022/02/20 02:28:44;;;;;;;3.80;1.50;;;230.60;2252.80;;;;;;5044674;28;20025;-80
2022/02/20 02:31:12;;;;;;;5.90;1.40;;;230.60;2252.80;;;;;;5040161;28;20483;-81
2022/02/20 02:33:38;;;;;;;3.22;1.20;;;230.60;2252.80;;;;;;5042574;28;20028;-80
2022/02/20 02:36:06;;;;;;;5.82;1.60;;;205.70;2252.80;;;;;;5045909;28;20041;-81
2022/02/20 02:38:34;;;;;;;4.70;1.35;;;230.40;2252.80;;;;;;5042624;28;20479;-81
2022/02/20 02:41:04;;;;;;;3.42;1.27;;;230.60;2252.80;;;;;;5043065;28;20090;-80
2022/02/20 02:43:31;;;;;;;3.42;1.33;;;230.70;2252.80;;;;;;5042691;28;20014;-80
2022/02/20 02:45:57;;;;;;;8.90;2.22;;;230.70;2252.80;;;;;;5045234;28;20031;-81
2022/02/20 02:48:23;;;;;;;4.03;1.52;;;230.70;2252.80;;;;;;5042236;28;20017;-82
2022/02/20 02:50:49;;;;;;;;;;;230.60;2252.80;;;;;;5044674;28;20036;-80
2022/02/20 02:53:15;;;;;;;4.18;1.00;;;205.70;2252.80;;;;;;5042868;28;19905;-81
2022/02/20 02:55:44;;;;;;;;;;;205.70;2252.80;;;;;;5039866;28;20044;-80
2022/02/20 02:58:10;;;;;;;8.52;1.33;;;205.40;2252.80;;;;;;5044309;28;19909;-81
2022/02/20 03:00:36;;;;;;;;;;;205.60;2252.80;;;;;;5041908;28;20458;-82
2022/02/20 03:03:01;;;;;;;6.88;1.05;;;205.70;2252.80;;;;;;5043759;28;19967;-81
2022/02/20 03:05:27;;;;;;;;;;;205.40;2252.80;;;;;;5044309;28;20021;-79
2022/02/20 03:07:53;;;;;;;2.22;0.70;;;205.50;2252.80;;;;;;5042015;28;19913;-80
2022/02/20 03:10:18;;;;;;;;;;;205.60;2252.80;;;;;;5043180;28;20047;-83
2022/02/20 03:12:44;;;;;;;6.13;1.10;;;205.60;2252.80;;;;;;5043775;28;19948;-81
2022/02/20 03:15:10;;;;;;;;;;;205.40;2252.80;;;;;;5041747;28;20030;-79
2022/02/20 03:17:36;;;;;;;3.30;1.20;;;205.30;2252.80;;;;;;5039269;28;19971;-82
2022/02/20 03:20:01;;;;;;;;;;;205.50;2252.80;;;;;;5043170;28;20045;-81
2022/02/20 03:22:27;;;;;;;1.98;1.00;;;205.70;2252.80;;;;;;5041708;28;20276;-80
2022/02/20 03:24:53;;;;;;;;;;;205.70;2252.80;;;;;;5044045;28;20033;-80
2022/02/20 03:27:19;;;;;;;9.48;2.78;;;205.70;2252.80;;;;;;5045006;28;20285;-83
2022/02/20 03:29:44;;;;;;;;;;;230.40;2252.80;;;;;;5042414;28;20551;-80
2022/02/20 03:32:10;;;;;;;8.75;3.63;;;230.40;2252.80;;;;;;5043287;28;19905;-80
2022/02/20 03:34:35;;;;;;;;;;;230.40;2252.80;;;;;;5043873;28;20036;-84
2022/02/20 03:37:01;;;;;;;6.40;3.08;;;230.50;2252.80;;;;;;5040033;28;19905;-83
2022/02/20 03:39:27;;;;;;;;;;;230.40;2252.80;;;;;;5043340;28;20418;-83
2022/02/20 03:41:53;;;;;;;7.55;2.40;;;230.40;2252.80;;;;;;5042292;28;19912;-80
2022/02/20 03:44:18;;;;;;;;;;;230.50;2252.80;;;;;;5042392;28;20658;-80
2022/02/20 03:46:44;;;;;;;6.75;2.53;;;230.50;2252.80;;;;;;5041907;28;19948;-80
2022/02/20 03:49:09;;;;;;;;;;;230.50;2252.80;;;;;;5040887;28;20025;-81
2022/02/20 03:51:35;;;;;;;9.27;5.07;;;230.50;2252.80;;;;;;5041232;28;19956;-82
2022/02/20 03:54:01;;;;;;;;;;;230.40;2252.80;;;;;;5041786;28;20067;-82
2022/02/20 03:56:26;;;;;;;9.18;3.42;;;230.40;2252.80;;;;;;5041497;28;19905;-80
2022/02/20 03:58:52;;;;;;;;;;;230.40;2252.80;;;;;;5040911;28;20029;-79
2022/02/20 04:01:17;;;;;;;6.88;3.10;;;205.70;2252.80;;;;;;5042001;28;19919;-83
2022/02/20 04:03:43;;;;;;;;;;;205.70;2252.80;;;;;;5043787;28;20041;-83
2022/02/20 04:06:09;;;;;;;8.82;3.50;;;205.50;2252.80;;;;;;5040629;28;20311;-79
2022/02/20 04:08:34;;;;;;;;;;;205.60;2252.80;;;;;;5041344;28;20017;-80
2022/02/20 04:11:01;;;;;;;11.23;5.00;;;205.70;2252.80;;;;;;5043831;28;19996;-79
2022/02/20 04:13:27;;;;;;;10.77;4.15;;;230.40;2252.80;;;;;;5042553;28;20364;-80
2022/02/20 04:15:52;;;;;;;;;;;230.50;2252.80;;;;;;5042903;28;20032;-79
2022/02/20 04:18:18;;;;;;;6.63;2.90;;;230.60;2252.80;;;;;;5041007;28;19939;-83
2022/02/20 04:20:44;;;;;;;;;;;230.50;2252.80;;;;;;5043901;28;20021;-80
2022/02/20 04:23:10;;;;;;;6.75;3.55;;;230.50;2252.80;;;;;;5040371;28;19905;-80
2022/02/20 04:25:35;;;;;;;;;;;205.70;2252.80;;;;;;5021573;28;20032;-80
2022/02/20 04:28:01;;;;;;;9.20;2.63;;;205.70;2252.80;;;;;;5041010;28;19959;-80
2022/02/20 04:30:26;;;;;;;;;;;205.70;2252.80;;;;;;5045195;28;20041;-84
2022/02/20 04:32:52;;;;;;;8.75;2.22;;;205.70;2252.80;;;;;;5039910;28;19920;-79
2022/02/20 04:35:18;;;;;;;;;;;205.60;2252.80;;;;;;5043785;28;20390;-84
2022/02/20 04:37:43;;;;;;;13.50;5.40;;;205.20;2252.80;;;;;;5039680;28;20059;-80
2022/02/20 04:40:09;;;;;;;;;;;204.80;2252.80;;;;;;5042422;28;20511;-80
2022/02/20 04:42:35;;;;;;;11.45;4.07;;;180.00;2252.80;;;;;;5039127;28;19931;-81
2022/02/20 04:45:01;;;;;;;;;;;179.80;2252.80;;;;;;5041740;28;20091;-80
2022/02/20 04:47:28;;;;;;;2.70;1.40;;;179.70;2252.80;;;;;;5040707;28;19996;-80
2022/02/20 04:49:54;;;;;;;4.88;1.90;;;179.70;2252.80;;;;;;5041554;28;20039;-80
2022/02/20 04:52:20;;;;;;;5.78;2.13;;;179.70;2252.80;;;;;;5037781;28;20387;-79
2022/02/20 04:54:46;;;;;;;;;;;180.00;2252.80;;;;;;5038309;28;20021;-80
2022/02/20 04:57:12;;;;;;;7.18;2.10;;;204.90;2252.80;;;;;;5039653;28;20244;-79
2022/02/20 04:59:37;;;;;;;;;;;204.90;2252.80;;;;;;5042374;28;20041;-84
2022/02/20 05:02:03;;;;;;;10.25;3.13;;;205.20;2252.80;;;;;;5040575;28;20401;-83
2022/02/20 05:04:29;;;;;;;;;;;205.40;2252.80;;;;;;5044146;28;20029;-81
2022/02/20 05:06:54;;;;;;;8.02;2.40;;;205.60;2252.80;;;;;;5040091;28;20016;-80
2022/02/20 05:09:20;;;;;;;;;;;205.70;2252.80;;;;;;5041743;28;20174;-79
2022/02/20 05:11:46;;;;;;;3.08;1.10;;;205.70;2252.80;;;;;;5040945;28;20416;-75
2022/02/20 05:14:11;;;;;;;;;;;230.40;2252.80;;;;;;5040801;28;20020;-80
2022/02/20 05:16:38;;;;;;;3.08;1.40;;;230.40;2252.80;;;;;;5040713;28;19905;-80
2022/02/20 05:19:04;;;;;;;5.03;1.52;;;205.70;2252.80;;;;;;5040845;28;20025;-80
2022/02/20 05:21:30;;;;;;;;;;;205.70;2252.80;;;;;;5041897;28;20017;-81
2022/02/20 05:23:55;;;;;;;2.65;1.20;;;230.40;2252.80;;;;;;5041822;28;19935;-79
2022/02/20 05:26:21;;;;;;;;;;;230.50;2252.80;;;;;;5039408;28;20112;-80
2022/02/20 05:28:47;;;;;;;3.00;1.20;;;230.50;2252.80;;;;;;5041992;28;19944;-79
2022/02/20 05:31:12;;;;;;;;;;;230.50;2252.80;;;;;;5040701;28;20029;-78
2022/02/20 05:33:38;;;;;;;3.53;1.35;;;230.60;2252.80;;;;;;5036732;28;19956;-79
2022/02/20 05:36:04;;;;;;;;;;;230.50;2252.80;;;;;;5040889;28;20392;-78
2022/02/20 05:38:30;;;;;;;3.63;1.60;;;230.50;2252.80;;;;;;5042209;28;20370;-79
2022/02/20 05:40:55;;;;;;;;;;;230.50;2252.80;;;;;;5039911;28;20053;-79
2022/02/20 05:43:21;;;;;;;6.70;1.25;;;230.40;2252.80;;;;;;5043499;28;19909;-79
2022/02/20 05:45:46;;;;;;;;;;;230.40;2252.80;;;;;;5041022;28;20033;-78
2022/02/20 05:48:13;;;;;;;16.25;6.32;;;230.40;2252.80;;;;;;5039394;28;19928;-79
2022/02/20 05:50:39;;;;;;;11.50;5.93;;;205.70;2252.80;;;;;;5039154;28;20021;-79
2022/02/20 05:53:04;;;;;;;;;;;205.70;2252.80;;;;;;5042154;28;20017;-82
2022/02/20 05:55:30;;;;;;;2.75;1.30;;;205.60;2252.80;;;;;;5038956;28;19908;-79
2022/02/20 05:57:56;;;;;;;;;;;205.50;2252.80;;;;;;5041736;28;20429;-78
2022/02/20 06:00:25;;;;;;;8.77;3.58;;;205.50;2252.80;;;;;;5039696;28;19921;-79
2022/02/20 06:02:51;;;;;;;11.88;3.90;;;205.50;2252.80;;;;;;5045653;28;20124;-80
2022/02/20 06:05:16;;;;;;;;;;;205.40;2252.80;;;;;;5045075;28;20144;-79
2022/02/20 06:07:43;;;;;;;13.15;4.80;;;205.50;2252.80;;;;;;5042706;28;19963;-79
2022/02/20 06:10:10;;;;;;;5.90;2.40;;;205.40;2252.80;;;;;;5043605;28;20021;-78
2022/02/20 06:12:36;;;;;;;6.60;1.38;;;205.40;2252.80;;;;;;5044519;28;20033;-79
2022/02/20 06:15:02;;;;;;;3.28;1.80;;;205.40;2252.80;;;;;;5042943;28;20049;-79
2022/02/20 06:17:28;;;;;;;12.68;5.80;;;205.30;2252.80;;;;;;5042780;28;20022;-78
2022/02/20 06:19:54;;;;;;;;;;;205.30;2252.80;;;;;;5042896;28;20044;-77
2022/02/20 06:22:19;;;;;;;6.32;3.00;;;205.30;2252.80;;;;;;5046311;28;19916;-78
2022/02/20 06:24:45;;;;;;;;;;;205.20;2252.80;;;;;;5040591;28;20531;-82
2022/02/20 06:27:11;;;;;;;7.95;3.08;;;205.20;2252.80;;;;;;5042282;28;19904;-83
2022/02/20 06:29:37;;;;;;;;;;;205.20;2252.80;;;;;;5042578;28;20027;-79
2022/02/20 06:32:05;;;;;;;12.02;4.03;;;205.20;2252.80;;;;;;5044043;28;19912;-83
2022/02/20 06:34:31;;;;;;;11.90;3.08;;;205.30;2252.80;;;;;;5043221;28;20021;-79
2022/02/20 06:36:57;;;;;;;8.13;3.72;;;205.20;2252.80;;;;;;5043284;28;20022;-78
2022/02/20 06:39:23;;;;;;;;;;;205.40;2252.80;;;;;;5044521;28;20080;-78
2022/02/20 06:41:49;;;;;;;8.52;2.13;;;205.30;2252.80;;;;;;5044038;28;19951;-79
2022/02/20 06:44:14;;;;;;;;;;;205.40;2252.80;;;;;;5044306;28;20164;-80
2022/02/20 06:46:42;;;;;;;9.13;3.20;;;205.40;2252.80;;;;;;5041932;28;19905;-81
2022/02/20 06:49:08;;;;;;;7.28;3.45;;;205.40;2252.80;;;;;;5043190;28;20025;-79
2022/02/20 06:51:34;;;;;;;;;;;205.40;2252.80;;;;;;5033852;28;20156;-78
2022/02/20 06:54:00;;;;;;;4.33;2.20;;;205.30;2252.80;;;;;;5033764;28;19915;-78
2022/02/20 06:56:27;;;;;;;8.23;3.60;;;205.30;2252.80;;;;;;5034697;28;20133;-77
2022/02/20 06:58:53;;;;;;;6.72;4.22;;;205.40;2252.80;;;;;;5033461;28;20034;-79
2022/02/20 07:01:19;;;;;;;;;;;205.40;2252.80;;;;;;5038950;28;20025;-82
2022/02/20 07:03:45;;;;;;;7.95;3.70;;;205.40;2252.80;;;;;;5036375;28;19924;-83
2022/02/20 07:06:11;;;;;;;8.70;4.60;;;205.40;2252.80;;;;;;5033087;28;20029;-79
2022/02/20 07:08:36;;;;;;;;;;;205.40;2252.80;;;;;;5042183;28;20025;-83
2022/02/20 07:11:02;;;;;;;9.80;4.40;;;205.50;2252.80;;;;;;5043318;28;20416;-81
2022/02/20 07:13:28;;;;;;;10.85;4.38;;;205.50;2252.80;;;;;;5042696;28;20487;-82
2022/02/20 07:15:54;;;;;;;;;;;205.40;2252.80;;;;;;5042093;28;20021;-78
2022/02/20 07:18:21;;;;;;;5.85;2.20;;;205.40;2252.80;;;;;;5047112;28;19913;-81
2022/02/20 07:20:47;;;;;;;23.75;8.35;;;205.50;2252.80;;;;;;5046723;28;20116;-80
2022/02/20 07:23:12;;;;;;;;;;;205.40;2252.80;;;;;;5042207;28;20467;-80
2022/02/20 07:25:38;;;;;;;80.90;25.83;;;205.30;2252.80;;;;;;5047340;28;19904;-81
2022/02/20 07:28:04;;;;;;;;;;;205.30;2252.80;;;;;;5053183;28;20028;-77
2022/02/20 07:30:30;;;;;;;25.05;11.55;;;205.30;2252.80;;;;;;5052531;28;19917;-78
2022/02/20 07:32:58;;;;;;;13.27;5.18;;;205.30;2252.80;;;;;;5049296;28;20419;-78
2022/02/20 07:35:24;;;;;;;13.73;3.70;;;205.40;2252.80;;;;;;5044106;28;20017;-73
2022/02/20 07:37:49;;;;;;;;;;;205.40;2252.80;;;;;;5042063;28;20025;-76
2022/02/20 07:40:16;;;;;;;11.63;6.10;;;205.50;2252.80;;;;;;5044129;28;19921;-78
2022/02/20 07:42:42;;;;;;;14.77;9.23;;;205.40;2252.80;;;;;;5052837;28;20033;-77
2022/02/20 07:45:08;;;;;;;15.30;7.82;;;205.40;2252.80;;;;;;5052849;28;20659;-76
2022/02/20 07:47:51;;;;;;;8.30;3.15;;;205.40;2252.80;;;;;;5054017;28;20020;-79
2022/02/20 07:50:17;;;;;;;12.93;3.55;;;205.40;2252.80;;;;;;5047188;28;20095;-79
2022/02/20 07:52:42;;;;;;;;;;;205.40;2252.80;;;;;;5033070;28;20491;-77
2022/02/20 07:55:09;;;;;;;11.70;2.30;;;205.50;2252.80;;;;;;5032725;28;19905;-78
2022/02/20 07:57:35;;;;;;;4.13;2.53;;;205.60;2252.80;;;;;;5032592;28;20025;-79
2022/02/20 08:00:03;;;;;;;3.05;1.63;;;205.60;2252.80;;;;;;5032629;28;20494;-79
2022/02/20 08:02:28;;;;;;;6.85;2.25;;;205.60;2252.80;;;;;;5032059;28;20107;-79
2022/02/20 08:04:54;;;;;;;;;;;205.70;2252.80;;;;;;5032890;28;20033;-78
2022/02/20 08:07:20;;;;;;;5.20;2.90;;;205.70;2252.80;;;;;;5032414;28;19905;-78
2022/02/20 08:09:45;;;;;;;;;;;205.60;2252.80;;;;;;5033056;28;20187;-77
2022/02/20 08:12:11;;;;;;;8.57;3.03;;;205.60;2252.80;;;;;;5032103;28;19905;-78
2022/02/20 08:14:36;;;;;;;;;;;205.70;2252.80;;;;;;5032801;28;20025;-78
2022/02/20 08:17:02;;;;;;;7.82;2.78;;;230.40;2252.80;;;;;;5032215;28;19905;-79
2022/02/20 08:19:28;;;;;;;;;;;205.70;2252.80;;;;;;5032235;28;20047;-78
2022/02/20 08:21:54;;;;;;;10.30;3.65;;;230.40;2252.80;;;;;;5031969;28;20304;-78
2022/02/20 08:24:19;;;;;;;;;;;205.70;2252.80;;;;;;5032072;28;20033;-77
2022/02/20 08:26:45;;;;;;;9.82;3.40;;;230.40;2252.80;;;;;;5032279;28;20004;-78
2022/02/20 08:29:11;;;;;;;;;;;230.40;2252.80;;;;;;5039764;28;20036;-77
2022/02/20 08:31:37;;;;;;;5.93;3.58;;;230.40;2252.80;;;;;;5042373;28;19913;-83
2022/02/20 08:34:02;;;;;;;;;;;230.50;2252.80;;;;;;5042846;28;20044;-79
2022/02/20 08:36:28;;;;;;;12.82;4.18;;;230.60;2252.80;;;;;;5035954;28;19987;-78
2022/02/20 08:38:54;;;;;;;7.68;3.83;;;230.60;2252.80;;;;;;5039829;28;20509;-84
2022/02/20 08:41:20;;;;;;;;;;;230.70;2252.80;;;;;;5041879;28;20021;-80
2022/02/20 08:43:46;;;;;;;7.50;3.50;;;230.60;2252.80;;;;;;5037559;28;19905;-79
2022/02/20 08:46:11;;;;;;;;;;;230.60;2252.80;;;;;;5032021;28;20555;-76
2022/02/20 08:48:37;;;;;;;7.15;3.67;;;230.60;2252.80;;;;;;5031808;28;19905;-80
2022/02/20 08:51:06;;;;;;;;;;;230.60;2252.80;;;;;;5040620;28;20029;-85
2022/02/20 08:53:32;;;;;;;8.68;3.20;;;230.70;2252.80;;;;;;5042079;28;19909;-83
2022/02/20 08:55:58;;;;;;;6.93;4.05;;;230.90;2252.80;;;;;;5043533;28;20029;-83
2022/02/20 08:58:23;;;;;;;;;;;230.90;2252.80;;;;;;5042441;28;20451;-85
2022/02/20 09:00:49;;;;;;;7.90;3.92;;;230.90;2252.80;;;;;;5039836;28;19916;-86
2022/02/20 09:03:14;;;;;;;;;;;230.90;2252.80;;;;;;5034791;28;20144;-84
2022/02/20 09:05:41;;;;;;;11.98;4.72;;;230.90;2252.80;;;;;;5031870;28;20347;-83
2022/02/20 09:08:06;;;;;;;13.18;6.85;;;230.80;2252.80;;;;;;5032218;28;20502;-83
2022/02/20 09:10:32;;;;;;;17.65;6.57;;;230.80;2252.80;;;;;;5044410;28;20029;-82
2022/02/20 09:12:58;;;;;;;;;;;230.60;2252.80;;;;;;5051499;28;20033;-83
2022/02/20 09:15:24;;;;;;;13.02;5.32;;;230.60;2252.80;;;;;;5052135;28;20375;-83
2022/02/20 09:17:50;;;;;;;;;;;230.60;2252.80;;;;;;5052234;28;20128;-82
2022/02/20 09:20:16;;;;;;;15.73;5.95;;;230.80;2252.80;;;;;;5045740;28;20011;-83
2022/02/20 09:22:42;;;;;;;15.45;6.47;;;230.80;2252.80;;;;;;5043012;28;20017;-82
2022/02/20 09:25:11;;;;;;;6.90;4.03;;;230.90;2252.80;;;;;;5042909;28;20095;-84
2022/02/20 09:27:37;;;;;;;11.63;5.30;;;231.00;2252.80;;;;;;5040871;28;20022;-82
2022/02/20 09:30:05;;;;;;;11.57;4.85;;;231.10;2252.80;;;;;;5040239;28;20033;-86
2022/02/20 09:32:30;;;;;;;13.10;5.35;;;231.10;2252.80;;;;;;5041537;28;20029;-87
2022/02/20 09:34:56;;;;;;;12.82;5.55;;;231.30;2252.80;;;;;;5038595;28;20025;-86
2022/02/20 09:37:22;;;;;;;;;;;256.10;2252.80;;;;;;5035785;28;20440;-83
2022/02/20 09:39:48;;;;;;;11.57;5.13;;;256.10;2252.80;;;;;;5035507;28;19924;-83
2022/02/20 09:42:15;;;;;;;9.63;3.45;;;256.10;2252.80;;;;;;5039063;28;20025;-82
2022/02/20 09:44:44;;;;;;;23.10;8.05;;;256.40;2252.80;;;;;;5043766;28;20037;-82
2022/02/20 09:47:11;;;;;;;11.73;4.60;;;256.40;2252.80;;;;;;5040765;28;20108;-84
2022/02/20 09:49:38;;;;;;;11.13;4.63;;;256.50;2252.80;;;;;;5035787;28;20111;-86
2022/02/20 09:52:04;;;;;;;8.27;3.50;;;256.40;2252.80;;;;;;5044539;28;20063;-81
2022/02/20 09:54:31;;;;;;;7.80;3.83;;;256.30;2252.80;;;;;;5042916;28;20029;-84
2022/02/20 09:56:57;;;;;;;28.10;11.25;;;256.40;2252.80;;;;;;5041459;28;20087;-84
2022/02/20 09:59:22;;;;;;;24.95;11.68;;;256.40;2252.80;;;;;;5036523;28;20073;-80
2022/02/20 10:02:08;;;;;;;;;;;256.50;2252.80;;;;;;5035784;28;20053;-81
2022/02/20 10:04:39;;;;;;;41.03;16.20;;;256.50;2252.80;;;;;;5035126;28;20011;-78
2022/02/20 10:07:05;;;;;;;11.55;4.63;;;256.40;2252.80;;;;;;5034791;28;20036;-82
2022/02/20 10:09:37;;;;;;;6.07;3.05;;;256.30;2252.80;;;;;;5035211;28;20021;-89
2022/02/20 10:12:18;;;;;;;13.25;5.95;;;256.50;2252.80;;;;;;5035201;28;20075;-85
2022/02/20 10:14:43;;;;;;;13.98;9.50;;;256.50;2252.80;;;;;;5034576;28;20056;-79
2022/02/20 10:17:17;;;;;;;14.82;7.20;;;256.50;2252.80;;;;;;5042811;28;20033;-81
2022/02/20 10:20:10;;;;;;;9.00;3.92;;;256.60;2252.80;;;;;;5040504;28;20321;-82
2022/02/20 10:22:41;;;;;;;15.95;8.43;;;256.70;2252.80;;;;;;5045324;28;20491;-82
2022/02/20 10:25:12;;;;;;;6.80;3.92;;;256.70;2252.80;;;;;;5042699;28;20057;-81
2022/02/20 10:27:53;;;;;;;11.27;3.80;;;256.70;2252.80;;;;;;5035654;28;20097;-80
2022/02/20 10:30:27;;;;;;;11.20;4.38;;;256.90;2252.80;;;;;;5034027;28;20120;-84
2022/02/20 10:33:24;;;;;;;4.90;2.60;;;256.90;2252.80;;;;;;5034504;28;20053;-82
2022/02/20 10:35:51;;;;;;;;;;;281.60;2278.40;;;;;;5034802;28;20112;-82
2022/02/20 10:38:21;;;;;;;7.10;3.22;;;281.60;2278.40;;;;;;5035325;28;19974;-82
2022/02/20 10:40:50;;;;;;;7.68;3.13;;;282.00;2278.40;;;;;;5034009;28;20036;-81
2022/02/20 10:43:43;;;;;;;5.13;2.88;;;282.10;2278.40;;;;;;5034611;28;20028;-82
2022/02/20 10:46:11;;;;;;;9.38;3.28;;;282.40;2278.40;;;;;;5030601;28;20479;-82
2022/02/20 10:48:39;;;;;;;7.82;2.30;;;307.40;2304.00;;;;;;5034320;28;20116;-83
2022/02/20 10:51:05;;;;;;;3.67;1.80;;;307.70;2304.00;;;;;;5033987;28;20022;-82
2022/02/20 10:53:32;;;;;;;6.03;2.70;;;308.00;2304.00;;;;;;5042215;28;20025;-83
2022/02/20 10:55:59;;;;;;;5.50;2.63;;;332.90;2329.60;;;;;;5044839;28;20021;-84
2022/02/20 10:58:26;;;;;;;5.05;2.63;;;332.90;2329.60;;;;;;5046428;28;20083;-85
2022/02/20 11:00:53;;;;;;;5.00;2.22;;;308.10;2304.00;;;;;;5038761;28;20034;-86
2022/02/20 11:03:23;;;;;;;8.40;3.63;;;332.90;2329.60;;;;;;5033632;28;20045;-83
2022/02/20 11:05:49;;;;;;;4.45;2.53;;;332.90;2329.60;;;;;;5033948;28;20029;-86
2022/02/20 11:08:18;;;;;;;6.70;2.90;;;332.80;2329.60;;;;;;5033274;28;20077;-81
2022/02/20 11:10:45;;;;;;;7.85;3.30;;;333.00;2329.60;;;;;;5033894;28;20089;-84
2022/02/20 11:13:12;;;;;;;8.38;2.65;;;333.30;2329.60;;;;;;5033560;28;20403;-82
2022/02/20 11:15:39;;;;;;;6.38;3.22;;;333.40;2329.60;;;;;;5034813;28;20025;-82
2022/02/20 11:18:08;;;;;;;4.75;2.20;;;333.40;2278.40;;;;;;5034380;28;20565;-83
2022/02/20 11:20:38;;;;;;;4.88;2.38;;;333.70;2227.20;;;;;;5033127;28;20065;-81
2022/02/20 11:23:05;;;;;;;4.03;2.15;;;358.40;2278.40;;;;;;5033543;28;20104;-83
2022/02/20 11:25:34;;;;;;;6.70;3.00;;;358.60;2278.40;;;;;;5033660;28;20017;-82
2022/02/20 11:28:02;;;;;;;6.13;2.15;;;358.80;2252.80;;;;;;5033748;28;20061;-83
2022/02/20 11:30:29;;;;;;;4.90;2.20;;;358.90;2099.20;;;;;;5034627;28;20025;-83
2022/02/20 11:33:04;;;;;;;3.85;2.30;;;359.00;2073.60;;;;;;5032911;28;20091;-83
2022/02/20 11:35:31;;;;;;;6.50;2.90;;;359.10;2048.00;;;;;;5033215;28;20030;-83
2022/02/20 11:38:05;;;;;;;4.72;2.33;;;359.30;2048.00;;;;;;5032685;28;20025;-83
2022/02/20 11:40:48;;;;;;;5.88;2.90;;;359.30;1996.80;;;;;;5033098;28;20037;-83
2022/02/20 11:43:14;;;;;;;6.40;3.53;;;384.00;1996.80;;;;;;5033186;28;20022;-81
2022/02/20 11:46:02;;;;;;;5.30;2.83;;;384.40;2022.40;;;;;;5032841;28;20045;-87
2022/02/20 11:48:27;;;;;;;11.75;4.72;;;384.50;1945.60;;;;;;5027099;28;20383;-81
2022/02/20 11:50:54;;;;;;;8.15;4.35;;;384.50;1945.60;;;;;;5032649;28;20043;-87
2022/02/20 11:53:27;;;;;;;6.35;2.80;;;384.40;1971.20;;;;;;5029647;28;20113;-84
2022/02/20 11:56:06;;;;;;;6.38;3.25;;;384.60;1894.40;;;;;;5030589;28;20111;-87
2022/02/20 11:58:32;;;;;;;5.82;2.53;;;384.70;1945.60;;;;;;5033293;28;20040;-82
2022/02/20 12:01:03;;;;;;;6.10;2.85;;;384.90;1920.00;;;;;;5032504;28;20056;-83
2022/02/20 12:03:30;;;;;;;5.38;2.80;;;409.60;1945.60;;;;;;5032371;28;20054;-82
2022/02/20 12:06:09;;;;;;;9.00;3.50;;;384.90;1843.20;;;;;;5031866;28;20036;-92
2022/02/20 12:08:39;;;;;;;6.45;2.85;;;409.70;1894.40;;;;;;5011766;28;20113;-83
2022/02/20 12:11:10;;;;;;;10.43;5.90;;;409.70;1868.80;;;;;;5020543;28;20021;-82
2022/02/20 12:13:51;;;;;;;6.68;3.78;;;409.80;1920.00;;;;;;5040619;28;20021;-84
2022/02/20 12:16:37;;;;;;;7.03;2.75;;;384.70;1894.40;;;;;;5037422;28;20017;-82
2022/02/20 12:19:14;;;;;;;5.25;3.15;;;409.60;1894.40;;;;;;5012285;28;20034;-83
2022/02/20 12:21:55;;;;;;;10.02;3.92;;;409.90;1817.60;;;;;;5031510;28;20121;-82
2022/02/20 12:24:29;;;;;;;12.65;3.92;;;409.70;1868.80;;;;;;5012316;28;20070;-81
2022/02/20 12:27:03;;;;;;;9.35;4.57;;;409.90;1843.20;;;;;;5012021;28;20412;-82
2022/02/20 12:29:38;;;;;;;6.95;3.35;;;409.90;1843.20;;;;;;5012044;28;20121;-81
2022/02/20 12:32:17;;;;;;;8.35;3.92;;;410.00;1843.20;;;;;;5013559;28;20487;-83
2022/02/20 12:34:52;;;;;;;7.68;3.47;;;409.90;1817.60;;;;;;5021245;28;20041;-82
2022/02/20 12:37:24;;;;;;;10.07;4.22;;;409.80;1843.20;;;;;;5030596;28;20041;-88